^^
Datos históricos de la estación: Murcia-Puente Tocinos
Diario Informe para Noviembre 9, 2019 Unidades:  Ingés    Métrico   Ambas
Diario Semanal Mensual Anual
  Máxima: Mínima: Promedio:
Temperatura: 66.7 °F 53.4 °F 59 °F
Punto de rocio: 48.9 °F 31.8 °F 37.2 °F
Humedad: 79% 30% 45%
Velocidad viento: 12.5mph 1.4mph 6.6mph
Racha viento: 29mph - -
Viento- - OSO
Presión: 30.1 in 29.9 in -
Precipitación: 0.04 in    
 
 
Tabla de datos para Noviembre 9, 2019
Hora Temperatura Punto de rocio Presión Viento Velocidad viento Racha viento Humedad Intensidad lluvia(por hora) Nubes
00:04 57.6 °F 32.9 °F 30.1 in SO 6.5 mph 13 mph 39.2% 0 in
00:09 57.6 °F 32.9 °F 30.1 in SO 6.4 mph 13.8 mph 39.3% 0 in
00:14 57.4 °F 32.9 °F 30.1 in SO 7.2 mph 14 mph 39.6% 0 in
00:19 57.2 °F 33.1 °F 30.1 in SO 7.4 mph 17.3 mph 39.8% 0 in
00:24 57.2 °F 33.1 °F 30.1 in SO 8 mph 17.3 mph 39.9% 0 in
00:29 57.2 °F 33.1 °F 30.1 in SO 8.1 mph 15 mph 40% 0 in
00:34 57.2 °F 33.1 °F 30.1 in SO 8.4 mph 14 mph 40% 0 in
00:39 57.2 °F 33.1 °F 30.1 in SO 8.5 mph 14 mph 40% 0 in
00:44 57 °F 32.9 °F 30.1 in SO 7.8 mph 15 mph 40% 0 in
00:49 57 °F 32.9 °F 30.1 in SO 7.6 mph 15 mph 39.9% 0 in
00:54 57 °F 32.9 °F 30.1 in SO 7 mph 13 mph 40% 0 in
00:59 57 °F 32.5 °F 30.1 in SO 6.9 mph 13.8 mph 39.3% 0 in
01:04 57 °F 32.4 °F 30.1 in SO 7.5 mph 15.2 mph 39% 0 in
01:09 57.2 °F 32.4 °F 30.1 in SO 7.6 mph 15 mph 39% 0 in
01:14 57.6 °F 32.4 °F 30.1 in SO 8.5 mph 20.7 mph 38.3% 0 in
01:19 57.7 °F 32.4 °F 30.1 in OSO 8.7 mph 21 mph 38% 0 in
01:24 57.9 °F 32.4 °F 30.1 in SO 9.9 mph 17.3 mph 38% 0 in
01:29 57.9 °F 32.2 °F 30.1 in SO 10.2 mph 17 mph 37.7% 0 in
01:34 57.9 °F 31.8 °F 30.1 in SO 9.8 mph 15 mph 37% 0 in
01:39 57.9 °F 31.8 °F 30.1 in SO 9.7 mph 17.3 mph 37.1% 0 in
01:44 57.7 °F 32.2 °F 30.1 in SO 9.3 mph 17 mph 38% 0 in
01:49 57.6 °F 32 °F 30.1 in OSO 9.2 mph 14 mph 38% 0 in
01:54 57.2 °F 32.2 °F 30.1 in OSO 8.3 mph 13 mph 38.6% 0 in
01:59 56.8 °F 32.4 °F 30.1 in OSO 8.1 mph 12 mph 39.1% 0 in
02:04 56.5 °F 32.4 °F 30.1 in OSO 6.6 mph 12.5 mph 40% 0 in
02:09 56.3 °F 32.4 °F 30.1 in OSO 6.4 mph 13 mph 40% 0 in
02:14 56.3 °F 32.4 °F 30.1 in OSO 7.4 mph 13.8 mph 40% 0 in
02:19 56.5 °F 32.4 °F 30.1 in OSO 7.6 mph 14 mph 40% 0 in
02:24 56.7 °F 32.4 °F 30.1 in OSO 7.6 mph 14 mph 39.5% 0 in
02:29 56.8 °F 32.2 °F 30.1 in OSO 7.6 mph 13 mph 39% 0 in
02:34 56.8 °F 32.2 °F 30.1 in OSO 8 mph 13.7 mph 39% 0 in
02:39 56.8 °F 32.2 °F 30.1 in OSO 8.1 mph 14 mph 39% 0 in
02:44 56.8 °F 32.2 °F 30.1 in OSO 7.7 mph 15 mph 39% 0 in
02:49 56.8 °F 32.2 °F 30.1 in OSO 7.6 mph 15 mph 39% 0 in
02:54 56.7 °F 32.4 °F 30.1 in OSO 7.6 mph 14 mph 39.6% 0 in
02:59 56.3 °F 32.4 °F 30.1 in OSO 7.6 mph 12 mph 40% 0 in
03:04 55.9 °F 32.2 °F 30.1 in OSO 6.4 mph 10.2 mph 40.4% 0 in
03:09 55.8 °F 32.4 °F 30.1 in OSO 6.2 mph 10.4 mph 41% 0 in
03:14 55.6 °F 32.2 °F 30.1 in OSO 6.2 mph 11 mph 41% 0 in
03:19 55.4 °F 32.2 °F 30.1 in OSO 6.2 mph 10.7 mph 41.1% 0 in
03:24 55.2 °F 32.5 °F 30.1 in OSO 6.2 mph 11 mph 42% 0 in
03:29 55 °F 32.4 °F 30.1 in OSO 6.2 mph 11.8 mph 42% 0 in
03:34 55 °F 32.4 °F 30.1 in OSO 6.2 mph 13.5 mph 42% 0 in
03:39 55 °F 32.4 °F 30.1 in OSO 6.2 mph 13 mph 42% 0 in
03:44 55 °F 32.4 °F 30.1 in OSO 6.3 mph 12 mph 42% 0 in
03:49 54.9 °F 32.2 °F 30.1 in OSO 6.4 mph 13.8 mph 42% 0 in
03:54 55 °F 32.4 °F 30.1 in OSO 6.4 mph 14 mph 42% 0 in
03:59 55.2 °F 32.5 °F 30.1 in OSO 6.4 mph 15 mph 42% 0 in
04:04 55.2 °F 32.5 °F 30.1 in OSO 7.9 mph 15 mph 42% 0 in
04:09 55 °F 32.7 °F 30.1 in OSO 8.1 mph 15 mph 42.6% 0 in
04:14 55 °F 33.1 °F 30.1 in OSO 8.4 mph 14 mph 43% 0 in
04:19 55.2 °F 33.1 °F 30.1 in OSO 8.5 mph 17.3 mph 43% 0 in
04:24 55.4 °F 33.3 °F 30.1 in Oeste 8.6 mph 17 mph 43% 0 in
04:29 55.4 °F 33.3 °F 30.1 in Oeste 8.7 mph 20.8 mph 43% 0 in
04:34 55.8 °F 33.4 °F 30.1 in Oeste 8.2 mph 21 mph 43% 0 in
04:39 55.8 °F 33.6 °F 30.1 in Oeste 8.1 mph 18.5 mph 43% 0 in
04:44 55.9 °F 33.8 °F 30.1 in Oeste 9 mph 19 mph 43% 0 in
04:49 55.8 °F 33.6 °F 30.1 in Oeste 9.2 mph 15 mph 43% 0 in
04:54 55.6 °F 33.6 °F 30.1 in OSO 8.3 mph 16.3 mph 43.5% 0 in
04:59 55.6 °F 34 °F 30.1 in OSO 8.1 mph 16.1 mph 43.9% 0 in
05:04 55.4 °F 33.8 °F 30.1 in OSO 9.1 mph 15 mph 44% 0 in
05:09 55 °F 33.6 °F 30.1 in OSO 9.2 mph 15 mph 44% 0 in
05:14 55 °F 34 °F 30.1 in OSO 7.8 mph 15 mph 44.8% 0 in
05:19 55 °F 34.2 °F 30.1 in OSO 7.4 mph 13 mph 45% 0 in
05:24 55 °F 34 °F 30.1 in Oeste 7.6 mph 19 mph 45% 0 in
05:29 54.9 °F 34 °F 30.1 in Oeste 7.6 mph 19 mph 45.2% 0 in
05:34 54.9 °F 34.5 °F 30.1 in Oeste 9.6 mph 17 mph 46% 0 in
05:39 54.9 °F 34.5 °F 30.1 in Oeste 10 mph 16.1 mph 46% 0 in
05:44 55 °F 34.5 °F 30.1 in OSO 10.2 mph 20.7 mph 45.8% 0 in
05:49 55.6 °F 34.5 °F 30.1 in OSO 10.2 mph 21 mph 45% 0 in
05:54 55.8 °F 34.5 °F 30.1 in OSO 10.1 mph 18.4 mph 44.5% 0 in
05:59 56.1 °F 34.5 °F 30.1 in OSO 10 mph 18.5 mph 44% 0 in
06:04 56.1 °F 34.5 °F 30.1 in OSO 11.2 mph 19 mph 44% 0 in
06:09 56.1 °F 34.5 °F 30.1 in OSO 11.4 mph 19.6 mph 44% 0 in
06:14 56.1 °F 34.5 °F 30.1 in OSO 11.4 mph 20.8 mph 44% 0 in
06:19 55.9 °F 34.3 °F 30.1 in Oeste 11.4 mph 21 mph 44% 0 in
06:24 55.8 °F 34.5 °F 30.1 in OSO 10.4 mph 22.5 mph 44.7% 0 in
06:29 55.8 °F 34.7 °F 30.1 in OSO 10.2 mph 24.2 mph 45% 0 in
06:34 55.6 °F 34.7 °F 30.1 in OSO 12.1 mph 24 mph 45% 0 in
06:39 55.2 °F 34.3 °F 30.1 in OSO 12.5 mph 24.6 mph 45% 0 in
06:44 55.2 °F 34.2 °F 30.1 in OSO 10.4 mph 25 mph 45% 0 in
06:49 55.2 °F 34.7 °F 30.1 in OSO 10 mph 22 mph 45.7% 0 in
06:54 55.2 °F 34.7 °F 30.1 in OSO 10.6 mph 22 mph 46% 0 in
06:59 55.2 °F 34.7 °F 30.1 in Oeste 10.7 mph 21.9 mph 46% 0 in
07:04 55 °F 34.7 °F 30.1 in Oeste 10.3 mph 22 mph 46% 0 in
07:09 55 °F 35.1 °F 30.1 in OSO 10.2 mph 28.6 mph 46.6% 0 in
07:14 55.4 °F 34.9 °F 30.1 in OSO 10.2 mph 29 mph 46% 0 in
07:19 55.6 °F 34.7 °F 30.1 in OSO 10.2 mph 23 mph 45.3% 0 in
07:24 55.6 °F 35.1 °F 30.1 in Oeste 10.6 mph 18 mph 46% 0 in
07:29 55.2 °F 35.1 °F 30.1 in ONO 10.7 mph 14 mph 46.7% 0 in
07:34 54.5 °F 35.1 °F 30.1 in ONO 7.6 mph 12.3 mph 47.8% 0 in
07:39 54.1 °F 35.2 °F 30.1 in ONO 6.9 mph 13 mph 48.9% 0 in
07:44 54 °F 35.1 °F 30.1 in ONO 6.9 mph 12 mph 49% 0 in
07:49 53.8 °F 35.6 °F 30.1 in ONO 6.9 mph 8.1 mph 50% 0 in
07:54 53.6 °F 35.4 °F 30.1 in ONO 4.8 mph 8.1 mph 50% 0 in
07:59 53.6 °F 35.4 °F 30.1 in Oeste 4.3 mph 8 mph 50% 0 in
08:04 53.4 °F 35.2 °F 30.1 in Oeste 5.1 mph 10.4 mph 50% 0 in
08:09 53.8 °F 35.6 °F 30.1 in ONO 5.2 mph 10 mph 50% 0 in
08:14 54 °F 35.8 °F 30.1 in ONO 5.3 mph 9.7 mph 50% 0 in
08:19 54.1 °F 35.8 °F 30.1 in Oeste 5.4 mph 11.8 mph 49.9% 0 in
08:24 54.1 °F 35.8 °F 30.1 in Oeste 5.8 mph 12.7 mph 49.8% 0 in
08:29 54.5 °F 35.8 °F 30.1 in OSO 5.9 mph 14 mph 49.1% 0 in
08:34 54.9 °F 36 °F 30.1 in Oeste 7.1 mph 14 mph 48.9% 0 in
08:39 55 °F 36 °F 30.1 in OSO 7.4 mph 14 mph 48.4% 0 in
08:44 55 °F 36 °F 30.1 in OSO 7.4 mph 14 mph 48.5% 0 in
08:49 54.9 °F 36 °F 30.1 in OSO 7.4 mph 10.4 mph 49% 0 in
08:54 54.9 °F 36 °F 30.1 in OSO 6.4 mph 13.8 mph 48.7% 0 in
08:59 55 °F 36 °F 30.1 in OSO 6.2 mph 14 mph 48.6% 0 in
09:04 55.2 °F 36 °F 30.1 in OSO 7.2 mph 14 mph 48% 0 in
09:09 55.2 °F 36 °F 30.1 in OSO 7.4 mph 14 mph 48% 0 in
09:14 55.2 °F 36 °F 30.1 in SO 6.2 mph 11 mph 48% 0 in
09:19 55.2 °F 36 °F 30.1 in SO 5.9 mph 8.1 mph 48% 0 in
09:24 55.2 °F 36 °F 30.1 in SO 4.3 mph 8 mph 48% 0 in
09:29 55.6 °F 35.8 °F 30.1 in SSO 4 mph 8.5 mph 47.4% 0 in
09:34 55.6 °F 35.8 °F 30.1 in SO 4.2 mph 11.5 mph 47% 0 in
09:39 55.8 °F 35.8 °F 30.1 in SO 4.3 mph 12 mph 47% 0 in
09:44 55.8 °F 35.8 °F 30.1 in Sur 4.7 mph 10 mph 47% 0 in
09:49 55.8 °F 35.8 °F 30.1 in SSO 4.7 mph 10.4 mph 47% 0 in
09:54 55.8 °F 36 °F 30.1 in SSO 5.9 mph 10 mph 47.1% 0 in
09:59 55.8 °F 36 °F 30.1 in OSO 6.2 mph 8.1 mph 47.3% 0 in
10:04 55.9 °F 36 °F 30.1 in SO 4 mph 9.2 mph 47% 0 in
10:09 56.3 °F 36 °F 30.1 in OSO 3.6 mph 10.4 mph 46.3% 0 in
10:14 56.7 °F 35.6 °F 30.1 in OSO 5.1 mph 12.7 mph 45.1% 0 in
10:19 56.8 °F 36 °F 30.1 in OSO 5.4 mph 13 mph 45.3% 0 in
10:24 57 °F 36 °F 30.1 in OSO 6.6 mph 13.8 mph 45% 0 in
10:29 57.2 °F 36.3 °F 30.1 in OSO 6.9 mph 14 mph 45.4% 0 in
10:34 57.4 °F 36.3 °F 30.1 in Oeste 6.1 mph 9 mph 45.1% 0 in
10:39 57.7 °F 36.3 °F 30.1 in Oeste 5.9 mph 13 mph 44.5% 0 in
10:44 58.1 °F 35.8 °F 30.1 in Oeste 6.2 mph 19.6 mph 43.3% 0 in
10:49 58.5 °F 36 °F 30.1 in ONO 6.2 mph 20 mph 43% 0 in
10:54 58.6 °F 35.6 °F 30.1 in ONO 9.5 mph 20 mph 42% 0 in
10:59 58.8 °F 35.8 °F 30.1 in ONO 10.2 mph 20 mph 42% 0 in
11:04 59.2 °F 36.1 °F 30.1 in Oeste 9.3 mph 17 mph 42% 0 in
11:09 59.4 °F 35.4 °F 30.1 in OSO 9.2 mph 18.4 mph 40.5% 0 in
11:14 59.4 °F 35.1 °F 30.1 in OSO 7.9 mph 18 mph 40% 0 in
11:19 59.5 °F 35.1 °F 30.1 in Oeste 7.6 mph 16.1 mph 40% 0 in
11:24 59.7 °F 35.1 °F 30.1 in Oeste 8.5 mph 15 mph 39.7% 0 in
11:29 59.7 °F 35.2 °F 30.1 in Oeste 8.7 mph 15 mph 39.7% 0 in
11:34 60.1 °F 35.4 °F 30.1 in Oeste 7.2 mph 15.2 mph 39.5% 0 in
11:39 60.1 °F 35.1 °F 30.1 in ONO 6.9 mph 17.3 mph 39% 0 in
11:44 60.1 °F 35.1 °F 30.1 in Oeste 8.2 mph 17 mph 39% 0 in
11:49 60.3 °F 35.1 °F 30.1 in OSO 8.5 mph 16 mph 39% 0 in
11:54 60.4 °F 34.7 °F 30.1 in OSO 7.8 mph 14 mph 38% 0 in
11:59 60.6 °F 34.9 °F 30.1 in Oeste 7.6 mph 17.5 mph 38.1% 0 in
12:04 60.6 °F 34.9 °F 30.1 in ONO 8.3 mph 17 mph 38% 0 in
12:09 61 °F 34.9 °F 30.1 in Oeste 8.5 mph 15 mph 37.6% 0 in
12:14 61.2 °F 34.7 °F 30.1 in Oeste 6.8 mph 17.3 mph 37.1% 0 in
12:19 61.3 °F 34.9 °F 30.1 in OSO 6.4 mph 17.3 mph 37% 0 in
12:24 61.5 °F 35.1 °F 30.1 in OSO 7.4 mph 15.2 mph 37% 0 in
12:29 61.9 °F 34.7 °F 30.1 in Oeste 7.6 mph 16.3 mph 36.2% 0 in
12:34 62.1 °F 34.9 °F 30.1 in Oeste 7.6 mph 16 mph 36.1% 0 in
12:39 62.2 °F 34.9 °F 30.1 in Oeste 7.6 mph 15 mph 36% 0 in
12:44 62.4 °F 34.7 °F 30.1 in ONO 7.6 mph 13.8 mph 35.5% 0 in
12:49 62.4 °F 34.7 °F 30.1 in ONO 7.6 mph 14 mph 35.4% 0 in
12:54 62.4 °F 34.7 °F 30.1 in Oeste 7.6 mph 15 mph 35.4% 0 in
12:59 62.4 °F 34.7 °F 30.1 in Oeste 7.6 mph 15 mph 35.5% 0 in
13:04 62.4 °F 34.9 °F 30.1 in ONO 8.4 mph 14.7 mph 35.6% 0 in
13:09 62.8 °F 34.7 °F 30.1 in Oeste 8.5 mph 15.2 mph 35.1% 0 in
13:14 63 °F 34.9 °F 30.1 in Oeste 7.8 mph 15 mph 34.9% 0 in
13:19 63.1 °F 34.9 °F 30.1 in Oeste 7.6 mph 14 mph 34.8% 0 in
13:24 63.5 °F 34.9 °F 30.1 in OSO 7 mph 10.4 mph 34.5% 0 in
13:29 63.9 °F 35.2 °F 30.1 in ONO 6.9 mph 12.7 mph 34.4% 0 in
13:34 63.9 °F 34.9 °F 30.1 in Oeste 6.3 mph 13 mph 33.9% 0 in
13:39 63.9 °F 34.7 °F 30.1 in ONO 6.2 mph 13 mph 33.7% 0 in
13:44 64 °F 34.5 °F 30.1 in ONO 6.2 mph 13 mph 33.2% 0 in
13:49 64 °F 34.3 °F 30.1 in ONO 6.2 mph 10 mph 33.1% 0 in
13:54 64 °F 34.3 °F 30.1 in Oeste 4.7 mph 8 mph 33% 0 in
13:59 64.2 °F 34.5 °F 30.1 in ONO 4.3 mph 6 mph 33% 0 in
14:04 64.2 °F 34.5 °F 30.1 in Oeste 3.1 mph 8.5 mph 33.1% 0 in
14:09 64.6 °F 34.7 °F 30.1 in SSO 2.9 mph 9.2 mph 33% 0 in
14:14 64.8 °F 34.7 °F 30 in SO 4.3 mph 12.7 mph 32.8% 0 in
14:19 64.8 °F 34.9 °F 30 in OSO 4.7 mph 13 mph 32.8% 0 in
14:24 64.9 °F 35.1 °F 30 in OSO 5.1 mph 11 mph 33% 0 in
14:29 64.8 °F 35.1 °F 30 in SO 5.2 mph 10.4 mph 33% 0 in
14:34 64.9 °F 36 °F 30 in SSO 5.2 mph 10 mph 33.9% 0 in
14:39 65.5 °F 35.8 °F 30 in SSO 5.2 mph 11.5 mph 33.2% 0 in
14:44 65.7 °F 35.8 °F 30 in SSO 6 mph 12 mph 33% 0 in
14:49 65.7 °F 35.6 °F 30 in SSO 6.2 mph 14 mph 32.9% 0 in
14:54 65.5 °F 35.2 °F 30 in SSO 6.2 mph 14 mph 32.6% 0 in
14:59 65.7 °F 35.1 °F 30 in Sur 6.2 mph 13 mph 32.3% 0 in
15:04 65.7 °F 35.2 °F 30 in Sur 5.5 mph 12.7 mph 32.3% 0 in
15:09 65.7 °F 34.9 °F 30 in SSO 5.4 mph 13 mph 31.8% 0 in
15:14 65.7 °F 35.1 °F 30 in Sur 7.2 mph 12 mph 32% 0 in
15:19 65.8 °F 34.7 °F 30 in Sur 7.6 mph 12.7 mph 31.4% 0 in
15:24 66 °F 34.5 °F 30 in SSO 7 mph 13 mph 31% 0 in
15:29 66.4 °F 34.7 °F 30 in SSE 6.9 mph 11 mph 30.8% 0 in
15:34 66.6 °F 34.2 °F 30 in SSO 6.3 mph 11.5 mph 30% 0 in
15:39 66.7 °F 34.3 °F 30 in SSO 6.2 mph 12 mph 30% 0 in
15:44 66.7 °F 34.3 °F 30 in SO 5.3 mph 9 mph 30% 0 in
15:49 66.7 °F 34.3 °F 30 in SSO 5.2 mph 8.1 mph 30% 0 in
15:54 66.7 °F 34.3 °F 30 in SO 4.8 mph 8.5 mph 30% 0 in
15:59 66.7 °F 34.3 °F 30 in OSO 4.7 mph 9 mph 30% 0 in
16:04 66.7 °F 34.3 °F 30 in SSO 4.7 mph 9.2 mph 30% 0 in
16:09 66.4 °F 34.2 °F 30 in SSO 4.7 mph 9 mph 30.2% 0 in
16:14 66.4 °F 34.2 °F 30 in SSE 4.7 mph 8.1 mph 30.2% 0 in
16:19 66.4 °F 34 °F 30 in SE 4.7 mph 8 mph 30% 0 in
16:24 66.2 °F 34.5 °F 30 in Sur 4.7 mph 7.4 mph 30.9% 0 in
16:29 66.2 °F 34.7 °F 30 in SE 4.7 mph 7 mph 30.9% 0 in
16:34 66.4 °F 34.9 °F 30 in SE 4.3 mph 7 mph 31% 0 in
16:39 66.4 °F 34.9 °F 30 in SSE 4.3 mph 11.4 mph 31% 0 in
16:44 66 °F 34.5 °F 30 in SSE 5 mph 12.7 mph 31% 0 in
16:49 65.7 °F 34.7 °F 30 in SSE 5.2 mph 13 mph 31.7% 0 in
16:54 65.5 °F 35.1 °F 30 in SSE 7.1 mph 12 mph 32.3% 0 in
16:59 65.1 °F 36.9 °F 30 in SSE 7.6 mph 13.8 mph 35.2% 0 in
17:04 64.8 °F 39 °F 30 in SSE 8.4 mph 18.4 mph 38.7% 0 in
17:09 64.6 °F 39.7 °F 30 in Sur 8.5 mph 18 mph 40% 0 in
17:14 64.2 °F 39.4 °F 30 in Sur 9.8 mph 16 mph 40% 0 in
17:19 64.2 °F 39.4 °F 30 in SSE 10 mph 14 mph 40% 0 in
17:24 64 °F 38.8 °F 30 in SSE 8 mph 15.2 mph 39.4% 0 in
17:29 63.7 °F 38.3 °F 30 in Sur 7.6 mph 15 mph 39% 0 in
17:34 63.7 °F 38.8 °F 30 in SSE 8.9 mph 15 mph 39.9% 0 in
17:39 63.3 °F 39 °F 30 in Sur 9.2 mph 15 mph 40.7% 0 in
17:44 63.1 °F 39.7 °F 30 in Sur 8.8 mph 14 mph 42% 0 in
17:49 63 °F 40.5 °F 30 in Sur 8.7 mph 13 mph 43.6% 0 in
17:54 62.8 °F 41.2 °F 30 in Sur 7.8 mph 13.8 mph 45.2% 0 in
17:59 62.4 °F 41.9 °F 30 in Sur 7.6 mph 14 mph 46.9% 0 in
18:04 62.2 °F 42.4 °F 30 in Sur 8 mph 13 mph 48% 0 in
18:09 62.1 °F 42.8 °F 30 in Sur 8.1 mph 13 mph 49.2% 0 in
18:14 61.9 °F 43 °F 30 in Sur 7.5 mph 13.8 mph 50% 0 in
18:19 61.7 °F 43.2 °F 30 in Sur 7.4 mph 14 mph 50.8% 0 in
18:24 61.5 °F 43.2 °F 30 in Sur 8 mph 13 mph 51% 0 in
18:29 61.5 °F 43.2 °F 30 in Sur 8.1 mph 12 mph 51% 0 in
18:34 61.5 °F 43.2 °F 30 in Sur 7.1 mph 11 mph 51% 0 in
18:39 61.5 °F 43.5 °F 30 in Sur 6.9 mph 10.4 mph 51.5% 0 in
18:44 61.5 °F 43.3 °F 30 in Sur 6.5 mph 10 mph 51.3% 0 in
18:49 61.3 °F 43.2 °F 30 in Sur 6.4 mph 9.2 mph 51.1% 0 in
18:54 61.3 °F 43 °F 30 in Sur 6 mph 9 mph 51% 0 in
18:59 61.3 °F 43 °F 30 in SSO 5.9 mph 7 mph 51% 0 in
19:04 61.3 °F 43 °F 30 in SSO 4.3 mph 6 mph 51% 0 in
19:09 61.3 °F 43 °F 30 in SSO 4 mph 5.8 mph 51% 0 in
19:14 61.3 °F 43.2 °F 30 in Oeste 3.1 mph 6 mph 51.2% 0 in
19:19 61 °F 43.5 °F 30 in North 2.9 mph 6 mph 52.6% 0 in
19:24 60.4 °F 43.7 °F 30 in North 2.9 mph 5 mph 53.8% 0 in
19:29 60.3 °F 43.5 °F 30 in North 2.9 mph 3.6 mph 54.2% 0 in
19:34 59.9 °F 43.7 °F 30 in NNO 2.2 mph 5.2 mph 55% 0 in
19:39 59.5 °F 43.3 °F 30 in NO 2 mph 5.2 mph 55% 0 in
19:44 59.4 °F 43.7 °F 30 in ONO 2.7 mph 5 mph 55.9% 0 in
19:49 59.4 °F 43.7 °F 30 in OSO 2.9 mph 9.7 mph 56% 0 in
19:54 59.5 °F 43.9 °F 30 in SO 3.5 mph 10 mph 56% 0 in
19:59 60.1 °F 44.4 °F 30 in OSO 3.6 mph 10.7 mph 56% 0 in
20:04 60.3 °F 44.4 °F 30 in Oeste 5 mph 11 mph 56% 0 in
20:09 60.4 °F 44.6 °F 30 in OSO 5.2 mph 9 mph 56% 0 in
20:14 60.4 °F 44.8 °F 30 in Oeste 4.2 mph 7.4 mph 56% 0 in
20:19 60.4 °F 44.8 °F 30 in ONO 4 mph 7.4 mph 56% 0 in
20:24 60.4 °F 44.8 °F 30 in ONO 3.3 mph 7 mph 56% 0 in
20:29 60.4 °F 44.8 °F 30 in SO 3.1 mph 5 mph 56% 0 in
20:34 60.3 °F 45 °F 30 in Oeste 2.2 mph 5.8 mph 56.7% 0 in
20:39 60.3 °F 45 °F 30 in Oeste 2 mph 6 mph 57% 0 in
20:44 60.3 °F 45 °F 30 in OSO 2.7 mph 6.2 mph 57% 0 in
20:49 60.3 °F 45 °F 30 in SO 2.9 mph 6 mph 56.9% 0 in
20:54 60.3 °F 44.4 °F 30 in OSO 3.5 mph 6.2 mph 55.8% 0 in
20:59 60.4 °F 43 °F 30 in Oeste 3.6 mph 10.7 mph 52.5% 0 in
21:04 60.8 °F 42.3 °F 30 in Oeste 4.5 mph 11 mph 50.4% 0 in
21:09 61 °F 41.5 °F 30 in Oeste 4.7 mph 10.4 mph 48.7% 0 in
21:14 61.2 °F 40.5 °F 30 in Oeste 5.7 mph 17.5 mph 46.5% 0 in
21:19 61.3 °F 40.6 °F 30 in Oeste 5.9 mph 18.4 mph 46.4% 0 in
21:24 61.2 °F 41.5 °F 30 in OSO 9 mph 18.4 mph 48.7% 0 in
21:29 60.6 °F 42.3 °F 30 in OSO 9.7 mph 14 mph 51% 0 in
21:34 60.3 °F 43 °F 30 in SO 7.4 mph 12 mph 53% 0 in
21:39 59.9 °F 43.5 °F 30 in SO 6.9 mph 12 mph 54.6% 0 in
21:44 59.4 °F 44.2 °F 30 in SO 5.7 mph 14.7 mph 57.3% 0 in
21:49 58.8 °F 44.8 °F 30 in OSO 5.4 mph 15 mph 59.8% 0.02 in
21:54 58.3 °F 45.5 °F 30 in SO 6.2 mph 13 mph 62.3% 0.02 in
21:59 57.7 °F 46.2 °F 30 in SO 6.4 mph 7 mph 65.1% 0.02 in
22:04 57.4 °F 46.2 °F 30 in SO 4.6 mph 9.2 mph 66.3% 0.02 in
22:09 57.2 °F 46.4 °F 30 in SO 4.3 mph 9 mph 67.2% 0.02 in
22:14 57 °F 46.2 °F 30 in SSO 4.7 mph 8.1 mph 67% 0.02 in
22:19 57.4 °F 46.2 °F 30 in SSO 4.7 mph 8.1 mph 66.3% 0.03 in
22:24 57.4 °F 46.2 °F 30 in SO 4.3 mph 7 mph 66.3% 0.03 in
22:29 57.4 °F 46.9 °F 30 in Oeste 4.3 mph 6 mph 67.9% 0.03 in
22:34 57.4 °F 47.5 °F 30 in OSO 3.4 mph 5 mph 69.6% 0.04 in
22:39 57 °F 47.5 °F 30 in SO 3.1 mph 5 mph 70.4% 0.04 in
22:44 56.8 °F 47.5 °F 30 in SSO 2.9 mph 6.9 mph 70.7% 0.04 in
22:49 56.8 °F 47.3 °F 30 in SSO 2.9 mph 7 mph 70.3% 0.04 in
22:54 56.8 °F 47.3 °F 30 in Oeste 3.5 mph 7 mph 70.1% 0.02 in
22:59 56.8 °F 47.7 °F 30 in Oeste 3.6 mph 5 mph 71.4% 0.02 in
23:04 56.8 °F 48 °F 30 in Oeste 2.5 mph 5.2 mph 72.5% 0.02 in
23:09 56.7 °F 48 °F 30 in OSO 2.4 mph 5.9 mph 73% 0.02 in
23:14 56.3 °F 48 °F 29.9 in OSO 3 mph 6 mph 73.8% 0.02 in
23:19 56.1 °F 47.8 °F 29.9 in ONO 3.1 mph 6 mph 74% 0.02 in
23:24 56.1 °F 48.2 °F 29.9 in NO 2.5 mph 5 mph 75% 0.01 in
23:29 55.9 °F 48.6 °F 29.9 in NO 2.4 mph 4 mph 76.2% 0.01 in
23:34 55.8 °F 48.7 °F 29.9 in NNO 2.1 mph 3.6 mph 77.6% 0.01 in
23:39 55.4 °F 48.9 °F 29.9 in Este 2 mph 4 mph 78.4% 0 in
23:44 55.2 °F 48.9 °F 29.9 in Este 1.5 mph 3.6 mph 79% 0 in
23:49 55.2 °F 48.6 °F 29.9 in ONO 1.4 mph 5.8 mph 78.4% 0 in
23:54 55.2 °F 48.6 °F 29.9 in NO 1.9 mph 6 mph 78% 0 in
23:59 55.2 °F 48.6 °F 29.9 in Oeste 2 mph 6 mph 78% 0 in
Murcia-Puente Tocinos, España
Compliments of Weather Underground - 3 mb

La estación de MeteoMurcia.com, publica sus datos en los siguientes proyectos:

Weather Underground PWS IMURCIAP2 Meteoclimatic www.awekas.at

W3Counter
Web Analytics